Time;durP1;ratioP1;P1;durP2;ratioP2;P2;SDS_P1;SDS_P2;PMS_P1;PMS_P2;Temp;Humidity;BMP_temperature;BMP_pressure;BME280_temperature;BME280_humidity;BME280_pressure;Samples;Min_cycle;Max_cycle;Signal;HPM_P1;HPM_P2
2021/12/16 00:04:47;;;;;;;30.25;24.65;;;;;;;10.08;100.00;103322.34;4857707;29;20060;-50
2021/12/16 00:07:22;;;;;;;34.42;26.67;;;;;;;10.08;100.00;103316.03;4876156;29;20089;-49
2021/12/16 00:10:23;;;;;;;32.72;26.00;;;;;;;10.06;100.00;103312.69;4877817;29;20057;-51
2021/12/16 00:31:55;;;;;;;33.25;25.00;;;;;;;10.03;100.00;103328.41;4813775;29;20083;-49
2021/12/16 00:34:43;;;;;;;32.13;25.58;;;;;;;10.04;100.00;103329.25;4820046;29;20054;-50
2021/12/16 00:37:30;;;;;;;33.63;24.73;;;;;;;10.04;100.00;103326.50;4820363;29;20053;-49
2021/12/16 00:40:18;;;;;;;33.28;25.23;;;;;;;10.02;100.00;103320.44;4822041;29;20062;-50
2021/12/16 00:43:21;;;;;;;33.25;24.50;;;;;;;10.02;100.00;103323.16;4807101;29;20058;-52
2021/12/16 00:55:09;;;;;;;33.78;25.38;;;;;;;10.02;100.00;103325.88;4803722;29;20055;-49
2021/12/16 00:57:57;;;;;;;30.58;24.00;;;;;;;10.01;100.00;103318.75;4776005;30;20059;-48
2021/12/16 01:00:54;;;;;;;31.40;24.88;;;;;;;10.00;100.00;103319.78;4873039;29;20048;-51
2021/12/16 01:06:56;;;;;;;31.05;23.85;;;;;;;9.98;100.00;103321.88;4864634;29;20195;-51
2021/12/16 01:50:27;;;;;;;28.45;21.63;;;;;;;10.00;100.00;103355.19;4875540;29;20572;-46
2021/12/16 01:59:33;;;;;;;26.58;21.05;;;;;;;9.99;100.00;103367.13;4839229;29;20090;-50
2021/12/16 02:02:45;;;;;;;26.55;20.30;;;;;;;9.99;100.00;103367.13;4839550;29;20523;-51
2021/12/16 02:06:02;;;;;;;25.70;19.48;;;;;;;10.00;100.00;103374.25;4842754;29;20050;-51
2021/12/16 02:08:52;;;;;;;29.25;21.65;;;;;;;10.00;100.00;103382.44;4840196;29;20054;-51
2021/12/16 02:36:42;;;;;;;26.70;19.42;;;;;;;9.98;100.00;103388.09;4826359;29;20079;-53
2021/12/16 02:39:33;;;;;;;28.52;20.33;;;;;;;9.99;100.00;103394.38;4823820;29;20065;-47
2021/12/16 02:42:35;;;;;;;25.63;18.92;;;;;;;10.00;100.00;103379.69;4803688;29;20066;-49
2021/12/16 02:48:37;;;;;;;25.52;18.70;;;;;;;9.99;100.00;103391.66;4808777;29;20050;-52
2021/12/16 02:51:27;;;;;;;25.55;19.00;;;;;;;9.98;100.00;103399.00;4821426;29;20062;-49
2021/12/16 02:54:15;;;;;;;26.52;19.05;;;;;;;9.97;100.00;103396.47;4823769;29;20062;-52
2021/12/16 02:57:03;;;;;;;23.98;18.60;;;;;;;9.96;100.00;103390.19;4823606;29;20057;-49
2021/12/16 02:59:52;;;;;;;25.25;18.88;;;;;;;9.98;100.00;103387.22;4805679;29;20074;-49
2021/12/16 03:02:42;;;;;;;28.00;18.95;;;;;;;9.96;100.00;103375.72;4805562;29;20058;-51
2021/12/16 03:05:30;;;;;;;25.88;18.92;;;;;;;9.96;100.00;103375.72;4809303;29;20059;-47
2021/12/16 03:08:18;;;;;;;27.92;19.27;;;;;;;9.96;100.00;103386.63;4866006;29;20065;-48
2021/12/16 03:11:23;;;;;;;26.23;19.77;;;;;;;9.95;100.00;103390.38;4864201;29;20053;-53
2021/12/16 03:20:06;;;;;;;23.85;18.65;;;;;;;9.96;100.00;103389.34;4879474;29;20136;-48
2021/12/16 03:38:16;;;;;;;25.40;18.45;;;;;;;9.93;100.00;103393.31;4879446;29;20052;-52
2021/12/16 03:41:06;;;;;;;26.52;18.83;;;;;;;9.93;100.00;103392.44;4866302;29;20452;-50
2021/12/16 03:43:56;;;;;;;24.77;17.35;;;;;;;9.92;100.00;103394.34;4866369;29;20408;-49
2021/12/16 03:46:48;;;;;;;24.13;18.05;;;;;;;9.94;100.00;103394.16;4866667;29;20064;-48
2021/12/16 03:49:37;;;;;;;25.52;18.58;;;;;;;9.93;100.00;103396.03;4875278;29;20064;-51
2021/12/16 03:52:25;;;;;;;25.38;17.48;;;;;;;9.93;100.00;103401.47;4866095;29;20468;-50
2021/12/16 03:55:14;;;;;;;24.38;18.33;;;;;;;9.94;100.00;103402.31;4863757;29;20135;-51
2021/12/16 03:58:04;;;;;;;27.75;18.95;;;;;;;9.92;100.00;103409.84;4879079;29;20473;-52
2021/12/16 04:00:59;;;;;;;22.27;17.23;;;;;;;9.91;100.00;103410.84;4865896;29;20057;-51
2021/12/16 04:03:49;;;;;;;27.27;18.55;;;;;;;9.90;100.00;103414.63;4865918;29;20055;-50
2021/12/16 04:06:38;;;;;;;23.67;17.17;;;;;;;9.89;100.00;103410.25;4860608;29;20061;-51
2021/12/16 04:09:23;;;;;;;23.47;17.50;;;;;;;9.87;100.00;103405.00;4844728;29;20140;-53
2021/12/16 04:12:28;;;;;;;24.00;17.95;;;;;;;9.86;100.00;103408.75;4857937;29;20120;-50
2021/12/16 04:15:16;;;;;;;25.73;17.83;;;;;;;9.87;100.00;103415.03;4854444;29;20053;-50
2021/12/16 04:18:09;;;;;;;23.17;17.88;;;;;;;9.87;100.00;103404.16;4876679;29;20053;-47
2021/12/16 04:20:56;;;;;;;29.88;19.60;;;;;;;9.84;100.00;103409.97;4865637;29;20049;-47
2021/12/16 04:23:32;;;;;;;24.77;17.70;;;;;;;9.81;100.00;103405.78;4863321;29;20056;-48
2021/12/16 04:26:20;;;;;;;34.25;18.13;;;;;;;9.81;100.00;103405.78;4864730;29;20301;-47
2021/12/16 04:29:08;;;;;;;23.35;17.15;;;;;;;9.79;100.00;103397.81;4865623;29;20049;-45
2021/12/16 04:31:51;;;;;;;25.45;17.45;;;;;;;9.77;100.00;103390.91;4862900;29;20068;-49
2021/12/16 04:34:39;;;;;;;26.65;17.27;;;;;;;9.74;100.00;103397.59;4878859;29;20060;-50
2021/12/16 04:37:27;;;;;;;25.35;17.05;;;;;;;9.73;100.00;103404.03;4878103;29;20057;-50
2021/12/16 04:40:17;;;;;;;24.85;17.38;;;;;;;9.73;100.00;103395.88;4878058;29;20060;-48
2021/12/16 04:43:08;;;;;;;24.77;17.85;;;;;;;9.70;100.00;103388.13;4877955;29;20049;-49
2021/12/16 04:46:23;;;;;;;23.20;16.60;;;;;;;9.70;100.00;103398.19;4876744;29;20143;-49
2021/12/16 04:49:13;;;;;;;25.88;17.33;;;;;;;9.70;100.00;103401.72;4864904;29;20052;-51
2021/12/16 04:52:09;;;;;;;26.50;17.27;;;;;;;9.70;100.00;103400.91;4846801;29;20049;-47
2021/12/16 04:54:59;;;;;;;22.60;17.02;;;;;;;9.67;100.00;103407.59;4846855;29;20056;-50
2021/12/16 04:57:48;;;;;;;22.52;15.90;;;;;;;9.66;100.00;103405.88;4862657;29;20049;-49
2021/12/16 05:00:35;;;;;;;24.15;17.33;;;;;;;9.65;100.00;103398.78;4878978;29;20056;-48
2021/12/16 05:03:51;;;;;;;22.65;16.42;;;;;;;9.65;100.00;103406.09;4879244;29;20080;-49
2021/12/16 05:06:39;;;;;;;26.42;16.60;;;;;;;9.66;100.00;103411.31;4864582;29;20140;-49
2021/12/16 05:12:35;;;;;;;24.92;17.20;;;;;;;9.64;100.00;103418.84;4877873;29;20056;-54
2021/12/16 05:15:30;;;;;;;24.85;17.55;;;;;;;9.61;100.00;103411.09;4877838;29;20126;-50
2021/12/16 05:18:23;;;;;;;23.92;17.00;;;;;;;9.60;100.00;103417.59;4861869;29;20461;-51
2021/12/16 05:21:41;;;;;;;25.02;16.42;;;;;;;9.61;100.00;103419.25;4846457;29;20057;-48
2021/12/16 05:24:30;;;;;;;24.05;16.20;;;;;;;9.60;100.00;103423.03;4846483;29;20062;-51
2021/12/16 05:27:24;;;;;;;23.98;16.35;;;;;;;9.59;100.00;103427.59;4844605;29;20118;-50
2021/12/16 05:30:13;;;;;;;26.90;17.55;;;;;;;9.57;100.00;103431.56;4871126;29;20053;-47
2021/12/16 05:32:45;;;;;;;26.75;18.33;;;;;;;9.53;100.00;103433.84;4877491;29;20399;-48
2021/12/16 05:35:33;;;;;;;25.33;18.52;;;;;;;9.50;100.00;103438.81;4877393;29;20057;-49
2021/12/16 05:38:22;;;;;;;26.48;18.63;;;;;;;9.42;100.00;103441.69;4865704;29;20543;-47
2021/12/16 05:41:13;;;;;;;27.15;17.30;;;;;;;9.35;100.00;103439.75;4868248;29;20408;-51
2021/12/16 05:44:01;;;;;;;27.73;17.55;;;;;;;9.36;100.00;103438.72;4868238;29;20101;-49
2021/12/16 05:46:49;;;;;;;25.20;16.48;;;;;;;9.38;100.00;103439.38;4868792;29;20072;-48
2021/12/16 05:49:37;;;;;;;22.55;16.42;;;;;;;9.39;100.00;103443.78;4867593;29;20128;-51
2021/12/16 05:52:25;;;;;;;24.33;16.90;;;;;;;9.40;100.00;103444.59;4882166;29;20053;-53
2021/12/16 05:55:14;;;;;;;23.35;16.83;;;;;;;9.43;100.00;103456.97;4880996;29;20060;-53
2021/12/16 05:58:36;;;;;;;28.52;16.90;;;;;;;9.41;100.00;103456.34;4875127;29;20104;-51
2021/12/16 06:01:28;;;;;;;23.38;16.48;;;;;;;9.41;100.00;103467.25;4867661;29;20045;-53
2021/12/16 06:04:16;;;;;;;22.25;16.10;;;;;;;9.39;100.00;103459.25;4867758;29;20113;-53
2021/12/16 06:07:04;;;;;;;25.23;16.52;;;;;;;9.38;100.00;103458.44;4867655;29;20499;-55
2021/12/16 06:09:37;;;;;;;25.08;17.15;;;;;;;9.38;100.00;103463.88;4193482;29;10000119;-54
2021/12/16 06:12:26;;;;;;;25.58;16.27;;;;;;;9.35;100.00;103466.97;4877663;29;20064;-48
2021/12/16 06:27:25;;;;;;;23.80;15.95;;;;;;;9.34;100.00;103473.44;4878730;29;20063;-50
2021/12/16 06:30:16;;;;;;;23.75;16.83;;;;;;;9.35;100.00;103482.44;4879919;29;20060;-50
2021/12/16 06:33:06;;;;;;;24.67;16.35;;;;;;;9.36;100.00;103479.53;4876803;29;20061;-54
2021/12/16 06:35:55;;;;;;;29.17;16.40;;;;;;;9.34;100.00;103478.06;4844761;29;20473;-48
2021/12/16 06:38:43;;;;;;;29.80;16.65;;;;;;;9.32;100.00;103482.84;4847304;29;20061;-52
2021/12/16 06:41:38;;;;;;;24.87;16.13;;;;;;;9.30;100.00;103487.63;4849570;29;20077;-52
2021/12/16 06:44:51;;;;;;;18.13;13.57;;;;;;;9.31;100.00;103483.91;4865116;29;20915;-47
2021/12/16 06:47:46;;;;;;;22.15;14.50;;;;;;;9.31;100.00;103482.00;4879670;29;20412;-52
2021/12/16 06:50:55;;;;;;;18.45;13.65;;;;;;;9.29;100.00;103478.63;4878066;29;20109;-50
2021/12/16 06:53:50;;;;;;;29.58;15.82;;;;;;;9.27;100.00;103475.25;4879024;29;20061;-54
2021/12/16 06:56:48;;;;;;;21.33;15.15;;;;;;;9.26;100.00;103480.88;4879491;29;20156;-50
2021/12/16 06:59:41;;;;;;;20.33;15.20;;;;;;;9.23;100.00;103484.00;4879474;29;20053;-48
2021/12/16 07:05:41;;;;;;;21.85;13.52;;;;;;;9.25;100.00;103499.09;4876632;29;20056;-52
2021/12/16 07:08:29;;;;;;;22.17;14.90;;;;;;;9.23;100.00;103498.44;4878672;29;20048;-47
2021/12/16 07:11:17;;;;;;;24.05;15.52;;;;;;;9.21;100.00;103499.66;4875776;29;20057;-50
2021/12/16 07:14:05;;;;;;;23.38;14.10;;;;;;;9.17;100.00;103504.66;4878174;29;20063;-47
2021/12/16 07:16:57;;;;;;;21.05;14.13;;;;;;;9.15;100.00;103504.84;4861939;29;20470;-48
2021/12/16 07:19:45;;;;;;;19.02;13.98;;;;;;;9.16;100.00;103519.28;4880098;29;20068;-52
2021/12/16 07:22:34;;;;;;;20.58;13.35;;;;;;;9.17;100.00;103521.00;4880682;29;20056;-50
2021/12/16 07:25:21;;;;;;;18.90;12.90;;;;;;;9.16;100.00;103528.31;4879921;29;20566;-53
2021/12/16 07:28:09;;;;;;;22.77;14.00;;;;;;;9.17;100.00;103537.31;4879905;29;20136;-48
2021/12/16 07:30:58;;;;;;;19.33;13.20;;;;;;;9.16;100.00;103541.03;4880001;29;20057;-50
2021/12/16 07:33:45;;;;;;;21.13;13.35;;;;;;;9.16;100.00;103546.50;4880023;29;20053;-46
2021/12/16 07:36:34;;;;;;;22.05;13.30;;;;;;;9.12;100.00;103546.03;4879232;29;20109;-48
2021/12/16 07:39:28;;;;;;;22.65;15.35;;;;;;;9.07;100.00;103559.38;4879508;29;20053;-48
2021/12/16 07:42:24;;;;;;;23.98;16.48;;;;;;;8.98;99.87;103565.94;4880035;29;20059;-54
2021/12/16 07:45:14;;;;;;;26.13;16.25;;;;;;;8.87;99.29;103567.25;4884249;29;20053;-47
2021/12/16 07:48:02;;;;;;;25.38;16.77;;;;;;;8.81;99.39;103580.78;4866435;29;20045;-49
2021/12/16 07:50:54;;;;;;;21.02;15.45;;;;;;;8.82;99.28;103580.56;4880150;29;20060;-47
2021/12/16 07:53:42;;;;;;;22.60;15.32;;;;;;;8.77;97.88;103590.34;4864203;29;20157;-47
2021/12/16 07:56:30;;;;;;;21.55;14.80;;;;;;;8.73;98.37;103587.13;4863990;29;20113;-46
2021/12/16 07:59:17;;;;;;;24.92;14.13;;;;;;;8.72;98.51;103585.47;4851343;29;20049;-47
2021/12/16 08:02:08;;;;;;;25.20;14.48;;;;;;;8.73;98.47;103584.41;4877278;29;20784;-50
2021/12/16 08:04:56;;;;;;;24.77;15.63;;;;;;;8.78;98.19;103584.72;4879878;29;20061;-50
2021/12/16 08:07:44;;;;;;;26.05;15.98;;;;;;;8.78;98.19;103592.88;4879647;29;20132;-50
2021/12/16 08:10:33;;;;;;;25.52;17.10;;;;;;;8.74;98.02;103602.44;4879748;29;20128;-52
2021/12/16 08:13:20;;;;;;;31.40;15.98;;;;;;;8.72;99.05;103605.31;4879974;29;20049;-51
2021/12/16 08:16:08;;;;;;;23.30;13.75;;;;;;;8.74;98.36;103607.88;4879903;29;20056;-54
2021/12/16 08:18:56;;;;;;;24.98;14.57;;;;;;;8.72;97.96;103607.22;4879665;29;20056;-54
2021/12/16 08:21:43;;;;;;;34.17;17.02;;;;;;;8.70;98.02;103617.41;4877462;29;20056;-54
2021/12/16 08:24:31;;;;;;;24.80;14.77;;;;;;;8.68;98.15;103627.63;4879549;29;20053;-49
2021/12/16 08:27:19;;;;;;;26.30;15.00;;;;;;;8.70;98.14;103622.84;4879309;29;20057;-47
2021/12/16 08:30:10;;;;;;;27.13;15.07;;;;;;;8.71;97.78;103624.56;4879275;29;20056;-51
2021/12/16 08:33:03;;;;;;;18.52;12.48;;;;;;;8.69;98.18;103632.06;4877023;29;20052;-53
2021/12/16 08:35:53;;;;;;;19.40;13.40;;;;;;;8.65;98.49;103630.72;4879572;29;20424;-51
2021/12/16 08:38:43;;;;;;;19.52;13.27;;;;;;;8.67;99.09;103634.09;4865211;29;20515;-52
2021/12/16 08:41:34;;;;;;;18.10;12.52;;;;;;;8.74;99.70;103644.03;4876969;29;20052;-50
2021/12/16 08:44:22;;;;;;;15.52;11.23;;;;;;;8.78;99.99;103654.53;4876128;29;20045;-48
2021/12/16 08:47:13;;;;;;;15.52;11.32;;;;;;;8.80;100.00;103649.75;4876957;29;20061;-52
2021/12/16 08:50:00;;;;;;;14.23;10.85;;;;;;;8.82;100.00;103647.72;4876840;29;20057;-49
2021/12/16 08:52:48;;;;;;;15.00;10.35;;;;;;;8.82;99.82;103650.44;4878699;29;20075;-51
2021/12/16 08:55:37;;;;;;;13.65;9.75;;;;;;;8.83;100.00;103652.13;4541385;29;10000343;-48
2021/12/16 08:58:25;;;;;;;12.75;9.52;;;;;;;8.86;100.00;103657.19;4875003;29;20053;-49
2021/12/16 09:01:19;;;;;;;14.40;10.10;;;;;;;8.84;99.83;103653.81;4875114;29;20056;-48
2021/12/16 09:04:07;;;;;;;14.15;10.27;;;;;;;8.83;100.00;103654.84;4874990;29;20049;-49
2021/12/16 09:06:59;;;;;;;13.48;9.57;;;;;;;8.79;99.89;103657.09;4877035;29;20053;-51
2021/12/16 09:09:47;;;;;;;11.07;8.30;;;;;;;8.78;99.99;103663.56;4877121;29;20065;-49
2021/12/16 09:15:23;;;;;;;12.93;9.43;;;;;;;8.79;99.39;103675.28;4860458;29;20152;-50
2021/12/16 09:18:12;;;;;;;12.07;9.05;;;;;;;8.77;99.27;103672.72;4874809;29;20064;-51
2021/12/16 09:21:04;;;;;;;12.07;8.07;;;;;;;8.75;99.50;103677.50;4874938;29;20049;-48
2021/12/16 09:23:50;;;;;;;13.13;8.38;;;;;;;8.75;99.99;103680.22;4876559;29;20045;-49
2021/12/16 09:26:38;;;;;;;12.45;9.18;;;;;;;8.76;99.66;103679.22;4877068;29;20061;-49
2021/12/16 09:29:26;;;;;;;10.98;8.20;;;;;;;8.76;99.32;103671.06;4876833;29;20061;-48
2021/12/16 09:32:04;;;;;;;13.00;8.00;;;;;;;8.73;99.73;103685.88;4860021;29;20045;-51
2021/12/16 09:34:54;;;;;;;12.13;8.75;;;;;;;8.73;99.66;103694.03;4876981;29;20083;-50
2021/12/16 09:37:42;;;;;;;13.18;8.63;;;;;;;8.73;99.35;103683.16;4876932;29;20094;-46
2021/12/16 09:40:30;;;;;;;13.15;9.73;;;;;;;8.71;100.00;103681.66;4868046;29;20548;-47
2021/12/16 09:43:30;;;;;;;13.02;8.30;;;;;;;8.72;100.00;103680.59;4873850;29;20054;-49
2021/12/16 09:46:23;;;;;;;12.73;9.35;;;;;;;8.76;100.00;103675.66;4876997;29;20053;-48
2021/12/16 09:49:12;;;;;;;13.32;10.13;;;;;;;8.75;99.97;103677.50;4876615;29;20504;-49
2021/12/16 09:52:00;;;;;;;15.20;8.90;;;;;;;8.75;99.71;103674.78;4876053;29;20061;-50
2021/12/16 09:54:48;;;;;;;13.85;10.82;;;;;;;8.73;100.00;103674.13;4859619;29;20061;-49
2021/12/16 09:57:36;;;;;;;15.10;11.05;;;;;;;8.67;100.00;103685.75;4859780;29;20118;-52
2021/12/16 10:00:25;;;;;;;14.07;10.80;;;;;;;8.64;100.00;103681.53;4843026;29;20136;-49
2021/12/16 10:03:13;;;;;;;16.45;11.30;;;;;;;8.63;100.00;103679.00;4863821;29;20084;-45
2021/12/16 10:06:01;;;;;;;14.07;10.60;;;;;;;8.67;100.00;103678.44;4877802;29;20568;-48
2021/12/16 10:08:48;;;;;;;13.20;10.15;;;;;;;8.73;100.00;103677.72;4878349;29;20068;-49
2021/12/16 10:11:38;;;;;;;14.43;10.88;;;;;;;8.77;100.00;103672.72;4891309;29;20057;-50
2021/12/16 10:17:24;;;;;;;14.35;11.02;;;;;;;8.81;100.00;103668.63;4859693;29;20076;-48
2021/12/16 10:20:26;;;;;;;16.23;11.57;;;;;;;8.83;100.00;103665.72;4857269;29;20050;-48
2021/12/16 10:23:35;;;;;;;15.27;11.48;;;;;;;8.86;100.00;103674.34;4868337;29;20559;-46
2021/12/16 10:26:24;;;;;;;18.08;12.68;;;;;;;8.87;100.00;103670.56;4867558;29;20492;-50
2021/12/16 10:29:11;;;;;;;16.75;12.10;;;;;;;8.88;100.00;103677.72;4879405;29;20068;-50
2021/12/16 10:31:59;;;;;;;18.85;12.90;;;;;;;8.91;100.00;103682.78;4867648;29;20061;-50
2021/12/16 10:34:58;;;;;;;20.50;12.77;;;;;;;8.91;100.00;103674.63;4878576;29;20068;-48
2021/12/16 10:38:06;;;;;;;19.33;13.40;;;;;;;8.92;100.00;103675.47;4881072;29;20064;-44
2021/12/16 10:40:56;;;;;;;18.58;13.02;;;;;;;8.92;100.00;103675.47;4878877;29;20124;-48
2021/12/16 10:44:05;;;;;;;18.60;12.60;;;;;;;8.93;100.00;103683.44;4877928;29;20093;-47
2021/12/16 10:47:10;;;;;;;18.48;13.25;;;;;;;8.98;100.00;103684.75;4879870;29;20113;-47
2021/12/16 10:49:57;;;;;;;21.00;14.77;;;;;;;9.00;100.00;103690.88;4878063;29;20504;-48
2021/12/16 10:53:43;;;;;;;24.75;15.75;;;;;;;9.02;100.00;103702.38;4805405;29;20058;-48
2021/12/16 10:56:48;;;;;;;21.38;14.23;;;;;;;9.05;100.00;103699.31;4804685;29;20051;-46
2021/12/16 10:59:44;;;;;;;21.88;14.73;;;;;;;9.09;100.00;103706.03;4803332;29;20055;-49
2021/12/16 11:02:35;;;;;;;24.52;15.18;;;;;;;9.07;100.00;103705.41;4805037;29;20431;-48
2021/12/16 11:05:24;;;;;;;20.92;15.23;;;;;;;9.07;100.00;103710.84;4804658;29;20078;-52
2021/12/16 11:08:12;;;;;;;19.25;14.63;;;;;;;9.07;100.00;103710.84;4803006;29;20080;-50
2021/12/16 11:11:11;;;;;;;21.92;15.65;;;;;;;9.06;100.00;103712.69;4858359;29;20057;-48
2021/12/16 11:14:05;;;;;;;22.00;14.55;;;;;;;9.08;100.00;103712.53;4880816;29;20112;-48
2021/12/16 11:17:00;;;;;;;19.75;14.38;;;;;;;9.12;100.00;103711.97;4866905;29;20457;-46
2021/12/16 11:19:50;;;;;;;21.02;15.10;;;;;;;9.17;100.00;103708.69;4880401;29;20049;-47
2021/12/16 11:22:39;;;;;;;18.33;13.82;;;;;;;9.22;100.00;103710.84;4878093;29;20342;-48
2021/12/16 11:25:34;;;;;;;20.67;14.90;;;;;;;9.25;100.00;103708.56;4878279;29;20057;-50
2021/12/16 11:28:31;;;;;;;22.42;13.48;;;;;;;9.27;100.00;103709.25;4880120;29;20045;-49
2021/12/16 11:31:25;;;;;;;18.38;13.75;;;;;;;9.31;100.00;103712.44;4202778;29;10000609;-45
2021/12/16 11:34:12;;;;;;;17.70;13.70;;;;;;;9.35;100.00;103702.84;4872939;29;20057;-49
2021/12/16 11:37:00;;;;;;;20.48;13.48;;;;;;;9.37;100.00;103704.34;4869933;29;20053;-50
2021/12/16 11:39:47;;;;;;;21.52;12.82;;;;;;;9.38;100.00;103692.44;4877529;29;20204;-49
2021/12/16 11:42:35;;;;;;;18.13;13.55;;;;;;;9.41;100.00;103701.28;4878327;29;20060;-49
2021/12/16 11:45:41;;;;;;;17.80;12.48;;;;;;;9.42;100.00;103703.78;4878592;29;20053;-51
2021/12/16 11:48:34;;;;;;;19.85;12.82;;;;;;;9.46;100.00;103687.94;4864125;29;20473;-48
2021/12/16 11:51:24;;;;;;;19.75;13.57;;;;;;;9.49;100.00;103687.53;4866969;29;20065;-49
2021/12/16 11:54:19;;;;;;;20.23;14.15;;;;;;;9.50;100.00;103681.06;4877277;29;20519;-49
2021/12/16 11:57:19;;;;;;;19.23;13.27;;;;;;;9.50;100.00;103675.59;4877553;29;20065;-47
2021/12/16 12:00:17;;;;;;;19.98;12.70;;;;;;;9.52;100.00;103670.81;4865820;29;20068;-49
2021/12/16 12:03:11;;;;;;;20.60;14.00;;;;;;;9.54;100.00;103666.88;4879566;29;20556;-47
2021/12/16 12:05:59;;;;;;;20.27;13.63;;;;;;;9.55;100.00;103673.19;4879593;29;20492;-48
2021/12/16 12:08:49;;;;;;;21.98;13.00;;;;;;;9.57;100.00;103671.09;4879281;29;20049;-49
2021/12/16 12:11:40;;;;;;;19.73;12.63;;;;;;;9.58;100.00;103673.63;4879555;29;20529;-47
2021/12/16 12:14:35;;;;;;;21.25;12.35;;;;;;;9.60;100.00;103668.00;4877035;29;20059;-48
2021/12/16 12:17:22;;;;;;;19.15;12.52;;;;;;;9.63;100.00;103669.50;4878844;29;20045;-47
2021/12/16 12:20:10;;;;;;;20.77;12.50;;;;;;;9.63;100.00;103661.34;4878229;29;20049;-48
2021/12/16 12:22:59;;;;;;;19.70;12.55;;;;;;;9.64;100.00;103663.00;4864426;29;20048;-47
2021/12/16 12:25:47;;;;;;;19.23;11.90;;;;;;;9.66;100.00;103661.78;4878071;29;20064;-49
2021/12/16 12:28:34;;;;;;;20.13;12.73;;;;;;;9.69;100.00;103666.88;4864958;29;20123;-50
2021/12/16 12:31:25;;;;;;;20.23;12.52;;;;;;;9.71;100.00;103661.22;4879286;29;20112;-51
2021/12/16 12:34:13;;;;;;;18.38;12.05;;;;;;;9.73;100.00;103665.41;4879574;29;20049;-50
2021/12/16 12:37:04;;;;;;;22.27;12.60;;;;;;;9.74;100.00;103667.13;4877734;29;20056;-50
2021/12/16 12:39:58;;;;;;;23.80;12.38;;;;;;;9.76;100.00;103670.47;4878150;29;20449;-51
2021/12/16 12:42:47;;;;;;;17.77;11.45;;;;;;;9.78;100.00;103673.00;4878783;29;20059;-50
2021/12/16 12:45:38;;;;;;;18.15;11.43;;;;;;;9.79;100.00;103675.56;4877357;29;20152;-53
2021/12/16 12:48:26;;;;;;;23.92;11.48;;;;;;;9.82;100.00;103677.06;4877991;29;20437;-49
2021/12/16 12:51:14;;;;;;;20.35;12.30;;;;;;;9.82;100.00;103677.88;4865029;29;20061;-51
2021/12/16 12:54:20;;;;;;;23.02;12.18;;;;;;;9.82;100.00;103677.88;4878526;29;20060;-48
2021/12/16 12:57:21;;;;;;;23.70;12.35;;;;;;;9.86;100.00;103682.94;4878674;29;20052;-49
2021/12/16 13:00:31;;;;;;;21.70;12.05;;;;;;;9.87;100.00;103671.88;4878628;29;20049;-48
2021/12/16 13:03:37;;;;;;;19.75;12.60;;;;;;;9.88;100.00;103675.44;4876522;29;20056;-49
2021/12/16 13:06:26;;;;;;;22.17;13.10;;;;;;;9.89;100.00;103668.97;4878285;29;20060;-49
2021/12/16 13:09:37;;;;;;;23.50;12.55;;;;;;;9.90;100.00;103667.91;4878321;29;20109;-49
2021/12/16 13:12:42;;;;;;;21.25;11.57;;;;;;;9.90;100.00;103666.03;4878602;29;20112;-49
2021/12/16 13:15:46;;;;;;;23.50;12.48;;;;;;;9.92;100.00;103660.41;4878976;29;20056;-49
2021/12/16 13:28:14;;;;;;;20.42;11.90;;;;;;;10.00;100.00;103669.25;4860038;29;20059;-48
2021/12/16 13:31:07;;;;;;;20.88;11.95;;;;;;;10.02;100.00;103678.09;4870883;29;20053;-50
2021/12/16 13:33:55;;;;;;;19.15;12.50;;;;;;;10.02;100.00;103671.81;4878823;29;20053;-49
2021/12/16 13:36:48;;;;;;;20.10;12.75;;;;;;;10.02;100.00;103683.53;4864883;29;20053;-49
2021/12/16 13:39:47;;;;;;;20.38;12.13;;;;;;;10.04;100.00;103686.06;4865901;29;20492;-47
2021/12/16 13:42:59;;;;;;;20.52;11.77;;;;;;;10.07;100.00;103690.28;4878593;29;20104;-50
2021/12/16 13:46:02;;;;;;;21.25;12.45;;;;;;;10.06;100.00;103686.72;4863184;29;20053;-53
2021/12/16 14:02:03;;;;;;;19.73;11.70;;;;;;;10.11;100.00;103687.00;4883359;29;20044;-50
2021/12/16 14:05:15;;;;;;;18.42;11.30;;;;;;;10.14;100.00;103694.75;4857145;29;20053;-44
2021/12/16 14:08:07;;;;;;;19.27;11.52;;;;;;;10.14;100.00;103688.47;4844803;29;20054;-44
2021/12/16 14:11:10;;;;;;;18.27;11.35;;;;;;;10.13;100.00;103687.66;4846686;29;20484;-48
2021/12/16 14:26:40;;;;;;;17.15;11.15;;;;;;;10.13;100.00;103703.16;4879361;29;20433;-50
2021/12/16 14:33:51;;;;;;;21.08;11.40;;;;;;;10.13;100.00;103701.25;4860781;29;20049;-47
2021/12/16 14:39:12;;;;;;;20.83;12.35;;;;;;;10.11;100.00;103705.22;4879115;29;20048;-46
2021/12/16 14:47:57;;;;;;;24.00;13.48;;;;;;;10.11;100.00;103708.78;4879171;29;20085;-48
2021/12/16 14:50:57;;;;;;;20.25;12.93;;;;;;;10.13;100.00;103711.31;4878993;29;20113;-49
2021/12/16 14:53:48;;;;;;;20.10;12.70;;;;;;;10.14;100.00;103715.72;4878948;29;20079;-49
2021/12/16 14:56:38;;;;;;;23.10;13.80;;;;;;;10.13;100.00;103717.63;4878486;29;20105;-49
2021/12/16 14:59:28;;;;;;;24.42;17.23;;;;;;;10.10;100.00;103717.13;4876906;29;20045;-49
2021/12/16 15:02:17;;;;;;;25.50;18.23;;;;;;;10.04;100.00;103716.03;4869435;29;20113;-49
2021/12/16 15:05:31;;;;;;;23.42;19.55;;;;;;;9.98;100.00;103708.63;4844480;29;20076;-50
2021/12/16 15:08:31;;;;;;;24.95;20.40;;;;;;;9.92;100.00;103704.81;4843540;29;20141;-47
2021/12/16 15:11:33;;;;;;;28.70;21.38;;;;;;;9.86;100.00;103707.44;4843292;29;20065;-48
2021/12/16 15:36:37;;;;;;;28.13;18.63;;;;;;;9.56;100.00;103724.69;4861172;29;20136;-49
2021/12/16 15:39:45;;;;;;;23.13;16.65;;;;;;;9.53;100.00;103726.97;4861269;29;20042;-48
2021/12/16 15:45:34;;;;;;;24.48;17.40;;;;;;;9.44;100.00;103733.53;4873699;29;20057;-50
2021/12/16 15:48:27;;;;;;;21.10;15.52;;;;;;;9.47;100.00;103741.31;4860853;29;20133;-48
2021/12/16 15:51:15;;;;;;;21.30;16.20;;;;;;;9.49;100.00;103741.97;4858229;29;20152;-44
2021/12/16 15:54:04;;;;;;;19.48;16.17;;;;;;;9.46;100.00;103743.19;4189529;29;9999920;-47
2021/12/16 15:56:52;;;;;;;22.38;16.05;;;;;;;9.43;100.00;103737.28;4859551;29;20320;-47
2021/12/16 15:59:47;;;;;;;20.52;16.48;;;;;;;9.43;100.00;103750.88;4859692;29;20053;-47
2021/12/16 16:02:35;;;;;;;21.13;16.98;;;;;;;9.42;100.00;103755.50;4859758;29;20397;-48
2021/12/16 16:05:23;;;;;;;23.02;17.10;;;;;;;9.42;100.00;103757.38;4859552;29;20061;-47
2021/12/16 16:08:13;;;;;;;20.95;16.33;;;;;;;9.39;100.00;103764.88;4858940;29;20058;-49
2021/12/16 16:11:04;;;;;;;21.38;17.88;;;;;;;9.38;100.00;103757.75;4859609;29;20053;-48
2021/12/16 16:13:57;;;;;;;22.33;18.42;;;;;;;9.36;100.00;103762.53;4859500;29;20117;-47
2021/12/16 16:16:50;;;;;;;23.38;18.35;;;;;;;9.32;100.00;103754.94;4859388;29;20485;-48
2021/12/16 16:19:38;;;;;;;22.63;17.90;;;;;;;9.30;100.00;103763.28;4840722;29;20133;-48
2021/12/16 16:22:25;;;;;;;21.38;17.20;;;;;;;9.36;100.00;103764.41;4841021;29;20367;-47
2021/12/16 16:25:13;;;;;;;22.90;18.13;;;;;;;9.39;100.00;103767.59;4840797;29;20073;-46
2021/12/16 16:28:02;;;;;;;22.50;18.45;;;;;;;9.40;100.00;103768.44;4841573;29;20045;-48
2021/12/16 16:30:52;;;;;;;21.80;17.88;;;;;;;9.37;100.00;103772.38;4858042;29;20057;-47
2021/12/16 16:33:41;;;;;;;21.67;17.58;;;;;;;9.34;100.00;103770.03;4858968;29;20121;-48
2021/12/16 16:36:29;;;;;;;25.75;19.13;;;;;;;9.34;100.00;103778.19;4858890;29;20547;-49
2021/12/16 16:39:19;;;;;;;24.02;19.65;;;;;;;9.31;100.00;103778.59;4858398;29;20189;-49
2021/12/16 16:42:11;;;;;;;24.92;18.67;;;;;;;9.28;100.00;103778.94;4858530;29;20057;-46
2021/12/16 16:44:59;;;;;;;27.25;21.83;;;;;;;9.26;100.00;103777.44;4840383;29;20076;-47
2021/12/16 16:47:52;;;;;;;26.17;21.05;;;;;;;9.24;100.00;103777.63;4840462;29;20068;-49
2021/12/16 16:50:40;;;;;;;32.40;19.80;;;;;;;9.23;100.00;103778.66;4866440;29;20057;-44